sensor_id;sensor_type;location;lat;lon;timestamp;temperature;humidity
60353;DHT22;46196;52.970;6.954;2023-04-25T00:01:02;7.10;99.90
60353;DHT22;46196;52.970;6.954;2023-04-25T00:03:29;8.10;99.90
60353;DHT22;46196;52.970;6.954;2023-04-25T00:05:55;7.50;99.90
60353;DHT22;46196;52.970;6.954;2023-04-25T00:08:22;7.00;99.90
60353;DHT22;46196;52.970;6.954;2023-04-25T00:13:14;5.80;99.90
60353;DHT22;46196;52.970;6.954;2023-04-25T00:15:40;6.90;99.90
60353;DHT22;46196;52.970;6.954;2023-04-25T00:18:07;6.90;99.90
60353;DHT22;46196;52.970;6.954;2023-04-25T00:20:33;6.90;99.90
60353;DHT22;46196;52.970;6.954;2023-04-25T00:22:58;8.60;99.90
60353;DHT22;46196;52.970;6.954;2023-04-25T00:25:24;5.80;99.90
60353;DHT22;46196;52.970;6.954;2023-04-25T00:27:50;7.30;99.90
60353;DHT22;46196;52.970;6.954;2023-04-25T00:30:16;6.80;99.90
60353;DHT22;46196;52.970;6.954;2023-04-25T00:32:41;6.80;99.90
60353;DHT22;46196;52.970;6.954;2023-04-25T00:35:07;5.70;99.90
60353;DHT22;46196;52.970;6.954;2023-04-25T00:37:33;6.70;99.90
60353;DHT22;46196;52.970;6.954;2023-04-25T00:39:58;6.80;99.90
60353;DHT22;46196;52.970;6.954;2023-04-25T00:42:25;6.80;99.90
60353;DHT22;46196;52.970;6.954;2023-04-25T00:44:52;8.30;99.90
60353;DHT22;46196;52.970;6.954;2023-04-25T00:47:18;6.70;99.90
60353;DHT22;46196;52.970;6.954;2023-04-25T00:49:44;7.00;99.90
60353;DHT22;46196;52.970;6.954;2023-04-25T00:52:10;6.80;99.90
60353;DHT22;46196;52.970;6.954;2023-04-25T00:54:37;6.80;99.90
60353;DHT22;46196;52.970;6.954;2023-04-25T00:57:03;5.80;99.90
60353;DHT22;46196;52.970;6.954;2023-04-25T00:59:29;6.50;99.90
60353;DHT22;46196;52.970;6.954;2023-04-25T01:01:56;7.20;99.90
60353;DHT22;46196;52.970;6.954;2023-04-25T01:04:22;6.60;99.90
60353;DHT22;46196;52.970;6.954;2023-04-25T01:06:48;5.80;99.90
60353;DHT22;46196;52.970;6.954;2023-04-25T01:09:14;6.70;99.90
60353;DHT22;46196;52.970;6.954;2023-04-25T01:11:40;6.90;99.90
60353;DHT22;46196;52.970;6.954;2023-04-25T01:14:06;6.80;99.90
60353;DHT22;46196;52.970;6.954;2023-04-25T01:16:32;5.70;99.90
60353;DHT22;46196;52.970;6.954;2023-04-25T01:18:59;7.60;99.90
60353;DHT22;46196;52.970;6.954;2023-04-25T01:21:25;6.70;99.90
60353;DHT22;46196;52.970;6.954;2023-04-25T01:23:53;6.30;99.90
60353;DHT22;46196;52.970;6.954;2023-04-25T01:26:19;6.60;99.90
60353;DHT22;46196;52.970;6.954;2023-04-25T01:28:47;7.00;99.90
60353;DHT22;46196;52.970;6.954;2023-04-25T01:31:13;6.40;99.90
60353;DHT22;46196;52.970;6.954;2023-04-25T01:33:39;5.80;99.90
60353;DHT22;46196;52.970;6.954;2023-04-25T01:36:05;6.50;99.90
60353;DHT22;46196;52.970;6.954;2023-04-25T01:38:31;5.70;99.90
60353;DHT22;46196;52.970;6.954;2023-04-25T01:40:57;6.60;99.90
60353;DHT22;46196;52.970;6.954;2023-04-25T01:43:23;5.80;99.90
60353;DHT22;46196;52.970;6.954;2023-04-25T01:45:49;5.60;99.90
60353;DHT22;46196;52.970;6.954;2023-04-25T01:48:15;5.90;99.90
60353;DHT22;46196;52.970;6.954;2023-04-25T01:50:41;5.90;99.90
60353;DHT22;46196;52.970;6.954;2023-04-25T01:53:09;7.30;99.90
60353;DHT22;46196;52.970;6.954;2023-04-25T01:55:35;5.20;99.90
60353;DHT22;46196;52.970;6.954;2023-04-25T01:58:02;5.80;99.90
60353;DHT22;46196;52.970;6.954;2023-04-25T02:00:28;5.80;99.90
60353;DHT22;46196;52.970;6.954;2023-04-25T02:02:53;5.80;99.90
60353;DHT22;46196;52.970;6.954;2023-04-25T02:05:19;5.00;99.90
60353;DHT22;46196;52.970;6.954;2023-04-25T02:07:46;6.00;99.90
60353;DHT22;46196;52.970;6.954;2023-04-25T02:10:12;4.60;99.90
60353;DHT22;46196;52.970;6.954;2023-04-25T02:12:37;5.60;99.90
60353;DHT22;46196;52.970;6.954;2023-04-25T02:15:04;5.00;99.90
60353;DHT22;46196;52.970;6.954;2023-04-25T02:17:29;5.10;99.90
60353;DHT22;46196;52.970;6.954;2023-04-25T02:19:57;5.60;99.90
60353;DHT22;46196;52.970;6.954;2023-04-25T02:22:22;6.60;99.90
60353;DHT22;46196;52.970;6.954;2023-04-25T02:24:48;5.60;99.90
60353;DHT22;46196;52.970;6.954;2023-04-25T02:27:14;5.70;99.90
60353;DHT22;46196;52.970;6.954;2023-04-25T02:29:39;7.20;99.90
60353;DHT22;46196;52.970;6.954;2023-04-25T02:32:05;7.80;99.90
60353;DHT22;46196;52.970;6.954;2023-04-25T02:34:31;5.70;99.90
60353;DHT22;46196;52.970;6.954;2023-04-25T02:36:57;5.70;99.90
60353;DHT22;46196;52.970;6.954;2023-04-25T02:39:22;6.60;99.90
60353;DHT22;46196;52.970;6.954;2023-04-25T02:44:16;5.80;99.90
60353;DHT22;46196;52.970;6.954;2023-04-25T02:46:42;5.80;99.90
60353;DHT22;46196;52.970;6.954;2023-04-25T02:49:08;5.10;99.90
60353;DHT22;46196;52.970;6.954;2023-04-25T02:51:33;6.60;99.90
60353;DHT22;46196;52.970;6.954;2023-04-25T02:53:59;5.80;99.90
60353;DHT22;46196;52.970;6.954;2023-04-25T02:56:25;5.80;99.90
60353;DHT22;46196;52.970;6.954;2023-04-25T02:58:52;5.80;99.90
60353;DHT22;46196;52.970;6.954;2023-04-25T03:01:17;8.10;99.90
60353;DHT22;46196;52.970;6.954;2023-04-25T03:06:09;5.20;99.90
60353;DHT22;46196;52.970;6.954;2023-04-25T03:08:35;6.10;99.90
60353;DHT22;46196;52.970;6.954;2023-04-25T03:11:00;5.70;99.90
60353;DHT22;46196;52.970;6.954;2023-04-25T03:13:26;5.10;99.90
60353;DHT22;46196;52.970;6.954;2023-04-25T03:15:52;5.60;99.90
60353;DHT22;46196;52.970;6.954;2023-04-25T03:18:18;5.70;99.90
60353;DHT22;46196;52.970;6.954;2023-04-25T03:20:44;5.70;99.90
60353;DHT22;46196;52.970;6.954;2023-04-25T03:23:10;5.10;99.90
60353;DHT22;46196;52.970;6.954;2023-04-25T03:25:35;5.70;99.90
60353;DHT22;46196;52.970;6.954;2023-04-25T03:28:01;5.70;99.90
60353;DHT22;46196;52.970;6.954;2023-04-25T03:30:27;5.70;99.90
60353;DHT22;46196;52.970;6.954;2023-04-25T03:32:52;5.10;99.90
60353;DHT22;46196;52.970;6.954;2023-04-25T03:35:18;5.70;99.90
60353;DHT22;46196;52.970;6.954;2023-04-25T03:37:44;5.70;99.90
60353;DHT22;46196;52.970;6.954;2023-04-25T03:40:12;5.30;99.90
60353;DHT22;46196;52.970;6.954;2023-04-25T03:42:38;5.70;99.90
60353;DHT22;46196;52.970;6.954;2023-04-25T03:45:04;7.60;99.90
60353;DHT22;46196;52.970;6.954;2023-04-25T03:47:29;5.70;99.90
60353;DHT22;46196;52.970;6.954;2023-04-25T03:49:55;5.30;99.90
60353;DHT22;46196;52.970;6.954;2023-04-25T03:52:21;5.00;99.90
60353;DHT22;46196;52.970;6.954;2023-04-25T03:54:46;7.00;99.90
60353;DHT22;46196;52.970;6.954;2023-04-25T03:57:12;5.70;99.90
60353;DHT22;46196;52.970;6.954;2023-04-25T03:59:38;5.60;99.90
60353;DHT22;46196;52.970;6.954;2023-04-25T04:02:03;5.70;99.90
60353;DHT22;46196;52.970;6.954;2023-04-25T04:04:29;5.80;99.90
60353;DHT22;46196;52.970;6.954;2023-04-25T04:06:55;5.20;99.90
60353;DHT22;46196;52.970;6.954;2023-04-25T04:11:47;8.20;99.90
60353;DHT22;46196;52.970;6.954;2023-04-25T04:14:13;5.80;99.90
60353;DHT22;46196;52.970;6.954;2023-04-25T04:16:39;5.90;99.90
60353;DHT22;46196;52.970;6.954;2023-04-25T04:19:04;6.00;99.90
60353;DHT22;46196;52.970;6.954;2023-04-25T04:21:30;5.70;99.90
60353;DHT22;46196;52.970;6.954;2023-04-25T04:23:57;5.70;99.90
60353;DHT22;46196;52.970;6.954;2023-04-25T04:26:25;5.50;99.90
60353;DHT22;46196;52.970;6.954;2023-04-25T04:28:51;5.60;99.90
60353;DHT22;46196;52.970;6.954;2023-04-25T04:31:20;6.80;99.90
60353;DHT22;46196;52.970;6.954;2023-04-25T04:33:45;6.40;99.90
60353;DHT22;46196;52.970;6.954;2023-04-25T04:36:12;5.30;99.90
60353;DHT22;46196;52.970;6.954;2023-04-25T04:38:38;5.10;99.90
60353;DHT22;46196;52.970;6.954;2023-04-25T04:41:04;4.20;99.90
60353;DHT22;46196;52.970;6.954;2023-04-25T04:43:29;4.30;99.90
60353;DHT22;46196;52.970;6.954;2023-04-25T04:45:55;5.10;99.90
60353;DHT22;46196;52.970;6.954;2023-04-25T04:48:24;4.10;99.90
60353;DHT22;46196;52.970;6.954;2023-04-25T04:50:50;6.90;99.90
60353;DHT22;46196;52.970;6.954;2023-04-25T04:53:15;5.00;99.90
60353;DHT22;46196;52.970;6.954;2023-04-25T04:55:41;5.30;99.90
60353;DHT22;46196;52.970;6.954;2023-04-25T04:58:08;5.10;99.90
60353;DHT22;46196;52.970;6.954;2023-04-25T05:00:34;5.90;99.90
60353;DHT22;46196;52.970;6.954;2023-04-25T05:03:00;6.10;99.90
60353;DHT22;46196;52.970;6.954;2023-04-25T05:05:26;4.80;99.90
60353;DHT22;46196;52.970;6.954;2023-04-25T05:07:52;3.80;99.90
60353;DHT22;46196;52.970;6.954;2023-04-25T05:10:18;6.80;99.90
60353;DHT22;46196;52.970;6.954;2023-04-25T05:12:44;4.30;99.90
60353;DHT22;46196;52.970;6.954;2023-04-25T05:15:10;7.10;99.90
60353;DHT22;46196;52.970;6.954;2023-04-25T05:17:36;4.90;99.90
60353;DHT22;46196;52.970;6.954;2023-04-25T05:20:02;5.30;99.90
60353;DHT22;46196;52.970;6.954;2023-04-25T05:22:29;4.30;99.90
60353;DHT22;46196;52.970;6.954;2023-04-25T05:24:55;7.10;99.90
60353;DHT22;46196;52.970;6.954;2023-04-25T05:27:20;5.20;99.90
60353;DHT22;46196;52.970;6.954;2023-04-25T05:29:46;5.00;99.90
60353;DHT22;46196;52.970;6.954;2023-04-25T05:32:12;5.10;99.90
60353;DHT22;46196;52.970;6.954;2023-04-25T05:34:38;4.30;99.90
60353;DHT22;46196;52.970;6.954;2023-04-25T05:37:03;5.20;99.90
60353;DHT22;46196;52.970;6.954;2023-04-25T05:39:29;5.00;99.90
60353;DHT22;46196;52.970;6.954;2023-04-25T05:41:55;4.60;99.90
60353;DHT22;46196;52.970;6.954;2023-04-25T05:44:20;5.30;99.90
60353;DHT22;46196;52.970;6.954;2023-04-25T05:46:46;5.40;99.90
60353;DHT22;46196;52.970;6.954;2023-04-25T05:49:12;4.80;99.90
60353;DHT22;46196;52.970;6.954;2023-04-25T05:51:38;5.60;99.90
60353;DHT22;46196;52.970;6.954;2023-04-25T05:54:03;7.40;99.90
60353;DHT22;46196;52.970;6.954;2023-04-25T05:56:29;5.70;99.90
60353;DHT22;46196;52.970;6.954;2023-04-25T05:58:55;5.50;99.90
60353;DHT22;46196;52.970;6.954;2023-04-25T06:01:22;5.50;99.90
60353;DHT22;46196;52.970;6.954;2023-04-25T06:03:48;4.30;99.90
60353;DHT22;46196;52.970;6.954;2023-04-25T06:06:14;4.80;99.90
60353;DHT22;46196;52.970;6.954;2023-04-25T06:08:40;4.50;99.90
60353;DHT22;46196;52.970;6.954;2023-04-25T06:11:06;5.10;99.90
60353;DHT22;46196;52.970;6.954;2023-04-25T06:13:32;5.50;99.90
60353;DHT22;46196;52.970;6.954;2023-04-25T06:15:58;4.40;99.90
60353;DHT22;46196;52.970;6.954;2023-04-25T06:18:24;4.50;99.90
60353;DHT22;46196;52.970;6.954;2023-04-25T06:20:49;4.70;99.90
60353;DHT22;46196;52.970;6.954;2023-04-25T06:23:15;5.40;99.90
60353;DHT22;46196;52.970;6.954;2023-04-25T06:25:41;6.50;99.90
60353;DHT22;46196;52.970;6.954;2023-04-25T06:28:07;5.30;99.90
60353;DHT22;46196;52.970;6.954;2023-04-25T06:30:32;5.40;99.90
60353;DHT22;46196;52.970;6.954;2023-04-25T06:32:58;5.00;99.90
60353;DHT22;46196;52.970;6.954;2023-04-25T06:35:24;7.90;99.90
60353;DHT22;46196;52.970;6.954;2023-04-25T06:37:49;5.00;99.90
60353;DHT22;46196;52.970;6.954;2023-04-25T06:40:15;6.90;99.90
60353;DHT22;46196;52.970;6.954;2023-04-25T06:42:42;5.80;99.90
60353;DHT22;46196;52.970;6.954;2023-04-25T06:45:08;5.20;99.90
60353;DHT22;46196;52.970;6.954;2023-04-25T06:47:34;6.00;99.90
60353;DHT22;46196;52.970;6.954;2023-04-25T06:50:00;7.90;99.90
60353;DHT22;46196;52.970;6.954;2023-04-25T06:52:25;6.50;99.90
60353;DHT22;46196;52.970;6.954;2023-04-25T06:54:51;6.40;99.90
60353;DHT22;46196;52.970;6.954;2023-04-25T06:57:17;6.70;99.90
60353;DHT22;46196;52.970;6.954;2023-04-25T06:59:42;6.60;99.90
60353;DHT22;46196;52.970;6.954;2023-04-25T07:02:08;5.90;99.90
60353;DHT22;46196;52.970;6.954;2023-04-25T07:04:33;5.40;99.90
60353;DHT22;46196;52.970;6.954;2023-04-25T07:06:59;6.70;99.90
60353;DHT22;46196;52.970;6.954;2023-04-25T07:09:28;6.80;99.90
60353;DHT22;46196;52.970;6.954;2023-04-25T07:11:53;5.90;99.90
60353;DHT22;46196;52.970;6.954;2023-04-25T07:14:19;6.70;99.90
60353;DHT22;46196;52.970;6.954;2023-04-25T07:19:12;6.40;99.90
60353;DHT22;46196;52.970;6.954;2023-04-25T07:21:37;6.10;99.90
60353;DHT22;46196;52.970;6.954;2023-04-25T07:24:03;8.90;99.90
60353;DHT22;46196;52.970;6.954;2023-04-25T07:26:29;7.20;99.90
60353;DHT22;46196;52.970;6.954;2023-04-25T07:31:22;8.40;99.90
60353;DHT22;46196;52.970;6.954;2023-04-25T07:33:48;9.40;99.90
60353;DHT22;46196;52.970;6.954;2023-04-25T07:36:13;10.10;99.90
60353;DHT22;46196;52.970;6.954;2023-04-25T07:38:41;10.90;99.90
60353;DHT22;46196;52.970;6.954;2023-04-25T07:41:07;10.40;99.90
60353;DHT22;46196;52.970;6.954;2023-04-25T07:43:32;10.90;99.90
60353;DHT22;46196;52.970;6.954;2023-04-25T07:45:58;10.50;99.90
60353;DHT22;46196;52.970;6.954;2023-04-25T07:48:24;9.90;99.90
60353;DHT22;46196;52.970;6.954;2023-04-25T07:50:49;9.30;99.90
60353;DHT22;46196;52.970;6.954;2023-04-25T07:53:16;8.10;99.90
60353;DHT22;46196;52.970;6.954;2023-04-25T07:55:43;7.80;99.90
60353;DHT22;46196;52.970;6.954;2023-04-25T07:58:09;7.70;99.90
60353;DHT22;46196;52.970;6.954;2023-04-25T08:00:35;4.90;99.90
60353;DHT22;46196;52.970;6.954;2023-04-25T08:03:02;6.60;99.90
60353;DHT22;46196;52.970;6.954;2023-04-25T08:05:28;8.80;99.90
60353;DHT22;46196;52.970;6.954;2023-04-25T08:07:54;8.40;99.90
60353;DHT22;46196;52.970;6.954;2023-04-25T08:10:20;9.30;99.90
60353;DHT22;46196;52.970;6.954;2023-04-25T08:12:46;10.30;99.90
60353;DHT22;46196;52.970;6.954;2023-04-25T08:15:12;11.20;99.90
60353;DHT22;46196;52.970;6.954;2023-04-25T08:17:39;11.40;99.90
60353;DHT22;46196;52.970;6.954;2023-04-25T08:20:05;11.30;99.90
60353;DHT22;46196;52.970;6.954;2023-04-25T08:22:31;11.30;99.90
60353;DHT22;46196;52.970;6.954;2023-04-25T08:24:57;11.20;99.90
60353;DHT22;46196;52.970;6.954;2023-04-25T08:27:23;10.80;99.90
60353;DHT22;46196;52.970;6.954;2023-04-25T08:29:49;10.80;99.90
60353;DHT22;46196;52.970;6.954;2023-04-25T08:32:15;11.20;99.90
60353;DHT22;46196;52.970;6.954;2023-04-25T08:34:40;11.50;99.90
60353;DHT22;46196;52.970;6.954;2023-04-25T08:37:09;10.50;99.90
60353;DHT22;46196;52.970;6.954;2023-04-25T08:39:36;10.50;99.90
60353;DHT22;46196;52.970;6.954;2023-04-25T08:42:05;11.00;99.90
60353;DHT22;46196;52.970;6.954;2023-04-25T08:44:34;10.20;99.90
60353;DHT22;46196;52.970;6.954;2023-04-25T08:47:04;10.30;99.90
60353;DHT22;46196;52.970;6.954;2023-04-25T08:49:32;10.10;99.90
60353;DHT22;46196;52.970;6.954;2023-04-25T08:52:03;10.20;99.90
60353;DHT22;46196;52.970;6.954;2023-04-25T08:54:31;11.10;99.90
60353;DHT22;46196;52.970;6.954;2023-04-25T08:57:00;10.70;99.90
60353;DHT22;46196;52.970;6.954;2023-04-25T08:59:30;10.90;99.90
60353;DHT22;46196;52.970;6.954;2023-04-25T09:01:57;11.40;99.90
60353;DHT22;46196;52.970;6.954;2023-04-25T09:04:23;10.70;99.90
60353;DHT22;46196;52.970;6.954;2023-04-25T09:06:48;11.40;99.90
60353;DHT22;46196;52.970;6.954;2023-04-25T09:09:14;11.10;99.90
60353;DHT22;46196;52.970;6.954;2023-04-25T09:11:41;10.90;99.90
60353;DHT22;46196;52.970;6.954;2023-04-25T09:14:18;11.00;99.90
60353;DHT22;46196;52.970;6.954;2023-04-25T09:16:59;11.20;99.90
60353;DHT22;46196;52.970;6.954;2023-04-25T09:21:56;10.80;99.90
60353;DHT22;46196;52.970;6.954;2023-04-25T09:24:42;10.30;99.90
60353;DHT22;46196;52.970;6.954;2023-04-25T09:27:11;9.70;99.90
60353;DHT22;46196;52.970;6.954;2023-04-25T09:29:40;9.80;99.90
60353;DHT22;46196;52.970;6.954;2023-04-25T09:32:18;9.30;99.90
60353;DHT22;46196;52.970;6.954;2023-04-25T09:34:55;9.40;99.90
60353;DHT22;46196;52.970;6.954;2023-04-25T09:37:26;9.60;99.90
60353;DHT22;46196;52.970;6.954;2023-04-25T09:39:59;11.50;99.90
60353;DHT22;46196;52.970;6.954;2023-04-25T09:42:28;10.70;99.90
60353;DHT22;46196;52.970;6.954;2023-04-25T09:44:57;11.00;99.90
60353;DHT22;46196;52.970;6.954;2023-04-25T09:47:24;11.40;99.90
60353;DHT22;46196;52.970;6.954;2023-04-25T09:49:51;12.10;99.90
60353;DHT22;46196;52.970;6.954;2023-04-25T09:52:24;11.70;99.90
60353;DHT22;46196;52.970;6.954;2023-04-25T09:54:50;11.60;99.90
60353;DHT22;46196;52.970;6.954;2023-04-25T09:57:19;10.90;99.90
60353;DHT22;46196;52.970;6.954;2023-04-25T09:59:47;11.30;99.90
60353;DHT22;46196;52.970;6.954;2023-04-25T10:02:18;11.90;99.90
60353;DHT22;46196;52.970;6.954;2023-04-25T10:04:49;11.30;99.90
60353;DHT22;46196;52.970;6.954;2023-04-25T10:07:16;11.20;99.90
60353;DHT22;46196;52.970;6.954;2023-04-25T10:09:43;11.30;99.90
60353;DHT22;46196;52.970;6.954;2023-04-25T10:12:11;11.10;99.90
60353;DHT22;46196;52.970;6.954;2023-04-25T10:14:37;10.90;99.90
60353;DHT22;46196;52.970;6.954;2023-04-25T10:17:03;11.00;99.90
60353;DHT22;46196;52.970;6.954;2023-04-25T10:19:29;11.70;99.90
60353;DHT22;46196;52.970;6.954;2023-04-25T10:22:37;11.90;99.90
60353;DHT22;46196;52.970;6.954;2023-04-25T10:25:03;9.70;99.90
60353;DHT22;46196;52.970;6.954;2023-04-25T10:27:30;10.40;99.90
60353;DHT22;46196;52.970;6.954;2023-04-25T10:30:10;9.80;99.90
60353;DHT22;46196;52.970;6.954;2023-04-25T10:32:42;7.90;99.90
60353;DHT22;46196;52.970;6.954;2023-04-25T10:35:33;10.00;99.90
60353;DHT22;46196;52.970;6.954;2023-04-25T10:38:04;8.60;99.90
60353;DHT22;46196;52.970;6.954;2023-04-25T10:40:34;8.70;99.90
60353;DHT22;46196;52.970;6.954;2023-04-25T10:45:59;9.60;99.90
60353;DHT22;46196;52.970;6.954;2023-04-25T10:48:26;7.70;99.90
60353;DHT22;46196;52.970;6.954;2023-04-25T10:56:27;8.90;99.90
60353;DHT22;46196;52.970;6.954;2023-04-25T10:59:16;10.40;99.90
60353;DHT22;46196;52.970;6.954;2023-04-25T11:01:46;9.10;99.90
60353;DHT22;46196;52.970;6.954;2023-04-25T11:04:29;9.50;99.90
60353;DHT22;46196;52.970;6.954;2023-04-25T11:09:45;10.00;99.90
60353;DHT22;46196;52.970;6.954;2023-04-25T11:12:11;9.70;99.90
60353;DHT22;46196;52.970;6.954;2023-04-25T11:14:38;9.50;99.90
60353;DHT22;46196;52.970;6.954;2023-04-25T11:17:04;9.90;99.90
60353;DHT22;46196;52.970;6.954;2023-04-25T11:19:31;9.30;99.90
60353;DHT22;46196;52.970;6.954;2023-04-25T11:21:58;9.80;99.90
60353;DHT22;46196;52.970;6.954;2023-04-25T11:24:27;9.80;99.90
60353;DHT22;46196;52.970;6.954;2023-04-25T11:26:53;10.60;99.90
60353;DHT22;46196;52.970;6.954;2023-04-25T11:29:31;9.80;99.90
60353;DHT22;46196;52.970;6.954;2023-04-25T11:31:58;9.90;99.90
60353;DHT22;46196;52.970;6.954;2023-04-25T11:34:24;10.70;99.90
60353;DHT22;46196;52.970;6.954;2023-04-25T11:36:51;12.50;99.90
60353;DHT22;46196;52.970;6.954;2023-04-25T11:39:20;9.40;99.90
60353;DHT22;46196;52.970;6.954;2023-04-25T11:41:46;10.30;99.90
60353;DHT22;46196;52.970;6.954;2023-04-25T11:44:15;10.50;99.90
60353;DHT22;46196;52.970;6.954;2023-04-25T11:46:42;10.40;99.90
60353;DHT22;46196;52.970;6.954;2023-04-25T11:49:08;10.40;99.90
60353;DHT22;46196;52.970;6.954;2023-04-25T11:51:43;10.10;99.90
60353;DHT22;46196;52.970;6.954;2023-04-25T11:54:10;9.90;99.90
60353;DHT22;46196;52.970;6.954;2023-04-25T11:56:37;9.70;99.90
60353;DHT22;46196;52.970;6.954;2023-04-25T11:59:05;9.80;99.90
60353;DHT22;46196;52.970;6.954;2023-04-25T12:01:36;9.80;99.90
60353;DHT22;46196;52.970;6.954;2023-04-25T12:04:12;9.90;99.90
60353;DHT22;46196;52.970;6.954;2023-04-25T12:06:38;9.80;99.90
60353;DHT22;46196;52.970;6.954;2023-04-25T12:09:10;9.60;99.90
60353;DHT22;46196;52.970;6.954;2023-04-25T12:11:46;9.50;99.90
60353;DHT22;46196;52.970;6.954;2023-04-25T12:14:23;9.30;99.90
60353;DHT22;46196;52.970;6.954;2023-04-25T12:16:50;9.60;99.90
60353;DHT22;46196;52.970;6.954;2023-04-25T12:19:17;8.90;99.90
60353;DHT22;46196;52.970;6.954;2023-04-25T12:21:44;9.90;99.90
60353;DHT22;46196;52.970;6.954;2023-04-25T12:27:09;10.40;99.90
60353;DHT22;46196;52.970;6.954;2023-04-25T12:29:35;11.10;99.90
60353;DHT22;46196;52.970;6.954;2023-04-25T12:32:01;10.40;99.90
60353;DHT22;46196;52.970;6.954;2023-04-25T12:34:27;10.50;99.90
60353;DHT22;46196;52.970;6.954;2023-04-25T12:36:53;10.50;99.90
60353;DHT22;46196;52.970;6.954;2023-04-25T12:39:21;10.70;99.90
60353;DHT22;46196;52.970;6.954;2023-04-25T12:41:48;10.40;99.90
60353;DHT22;46196;52.970;6.954;2023-04-25T12:44:14;10.70;99.90
60353;DHT22;46196;52.970;6.954;2023-04-25T12:46:40;10.70;99.90
60353;DHT22;46196;52.970;6.954;2023-04-25T12:49:07;11.20;99.90
60353;DHT22;46196;52.970;6.954;2023-04-25T12:51:36;11.20;99.90
60353;DHT22;46196;52.970;6.954;2023-04-25T12:54:03;13.50;99.90
60353;DHT22;46196;52.970;6.954;2023-04-25T12:56:30;11.70;99.90
60353;DHT22;46196;52.970;6.954;2023-04-25T12:58:56;13.10;99.90
60353;DHT22;46196;52.970;6.954;2023-04-25T13:01:23;11.80;99.90
60353;DHT22;46196;52.970;6.954;2023-04-25T13:03:49;11.60;99.30
60353;DHT22;46196;52.970;6.954;2023-04-25T13:06:16;10.90;99.50
60353;DHT22;46196;52.970;6.954;2023-04-25T13:08:42;10.60;99.50
60353;DHT22;46196;52.970;6.954;2023-04-25T13:11:08;10.30;99.90
60353;DHT22;46196;52.970;6.954;2023-04-25T13:13:34;9.90;99.90
60353;DHT22;46196;52.970;6.954;2023-04-25T13:16:01;10.90;99.90
60353;DHT22;46196;52.970;6.954;2023-04-25T13:18:31;10.00;99.90
60353;DHT22;46196;52.970;6.954;2023-04-25T13:20:57;11.90;99.90
60353;DHT22;46196;52.970;6.954;2023-04-25T13:23:25;10.60;99.90
60353;DHT22;46196;52.970;6.954;2023-04-25T13:25:51;10.70;99.90
60353;DHT22;46196;52.970;6.954;2023-04-25T13:28:17;9.80;99.90
60353;DHT22;46196;52.970;6.954;2023-04-25T13:30:43;10.90;99.90
60353;DHT22;46196;52.970;6.954;2023-04-25T13:35:37;11.10;99.60
60353;DHT22;46196;52.970;6.954;2023-04-25T13:38:03;12.10;99.90
60353;DHT22;46196;52.970;6.954;2023-04-25T13:40:29;10.70;99.30
60353;DHT22;46196;52.970;6.954;2023-04-25T13:42:56;11.40;99.60
60353;DHT22;46196;52.970;6.954;2023-04-25T13:45:22;11.60;98.20
60353;DHT22;46196;52.970;6.954;2023-04-25T13:47:47;12.20;99.10
60353;DHT22;46196;52.970;6.954;2023-04-25T13:50:13;11.50;97.80
60353;DHT22;46196;52.970;6.954;2023-04-25T13:52:40;10.90;98.10
60353;DHT22;46196;52.970;6.954;2023-04-25T13:55:07;11.30;99.40
60353;DHT22;46196;52.970;6.954;2023-04-25T13:57:34;11.30;99.60
60353;DHT22;46196;52.970;6.954;2023-04-25T14:00:00;11.40;99.10
60353;DHT22;46196;52.970;6.954;2023-04-25T14:02:30;11.40;97.60
60353;DHT22;46196;52.970;6.954;2023-04-25T14:04:56;11.30;95.50
60353;DHT22;46196;52.970;6.954;2023-04-25T14:07:21;10.50;98.50
60353;DHT22;46196;52.970;6.954;2023-04-25T14:09:47;11.60;99.80
60353;DHT22;46196;52.970;6.954;2023-04-25T14:12:12;11.70;99.10
60353;DHT22;46196;52.970;6.954;2023-04-25T14:14:38;11.00;96.00
60353;DHT22;46196;52.970;6.954;2023-04-25T14:17:04;10.80;96.60
60353;DHT22;46196;52.970;6.954;2023-04-25T14:19:30;11.70;97.90
60353;DHT22;46196;52.970;6.954;2023-04-25T14:21:56;11.20;97.80
60353;DHT22;46196;52.970;6.954;2023-04-25T14:24:21;11.40;97.50
60353;DHT22;46196;52.970;6.954;2023-04-25T14:26:47;11.50;97.70
60353;DHT22;46196;52.970;6.954;2023-04-25T14:29:13;13.30;98.00
60353;DHT22;46196;52.970;6.954;2023-04-25T14:31:39;11.40;97.10
60353;DHT22;46196;52.970;6.954;2023-04-25T14:34:05;11.60;96.90
60353;DHT22;46196;52.970;6.954;2023-04-25T14:36:32;10.00;95.40
60353;DHT22;46196;52.970;6.954;2023-04-25T14:38:58;10.90;95.50
60353;DHT22;46196;52.970;6.954;2023-04-25T14:41:24;10.90;98.20
60353;DHT22;46196;52.970;6.954;2023-04-25T14:43:50;10.50;98.20
60353;DHT22;46196;52.970;6.954;2023-04-25T14:46:16;10.40;99.90
60353;DHT22;46196;52.970;6.954;2023-04-25T14:48:42;10.10;99.90
60353;DHT22;46196;52.970;6.954;2023-04-25T14:51:08;11.00;99.90
60353;DHT22;46196;52.970;6.954;2023-04-25T14:53:34;9.50;99.90
60353;DHT22;46196;52.970;6.954;2023-04-25T14:55:59;9.80;99.90
60353;DHT22;46196;52.970;6.954;2023-04-25T14:58:25;9.90;99.90
60353;DHT22;46196;52.970;6.954;2023-04-25T15:00:51;9.80;99.90
60353;DHT22;46196;52.970;6.954;2023-04-25T15:03:17;9.80;99.90
60353;DHT22;46196;52.970;6.954;2023-04-25T15:05:43;9.90;99.90
60353;DHT22;46196;52.970;6.954;2023-04-25T15:08:09;9.90;99.90
60353;DHT22;46196;52.970;6.954;2023-04-25T15:10:36;9.60;99.90
60353;DHT22;46196;52.970;6.954;2023-04-25T15:13:03;10.10;99.90
60353;DHT22;46196;52.970;6.954;2023-04-25T15:15:29;10.10;99.90
60353;DHT22;46196;52.970;6.954;2023-04-25T15:17:55;10.00;99.90
60353;DHT22;46196;52.970;6.954;2023-04-25T15:20:21;11.80;99.90
60353;DHT22;46196;52.970;6.954;2023-04-25T15:22:47;10.30;99.90
60353;DHT22;46196;52.970;6.954;2023-04-25T15:25:14;10.70;99.90
60353;DHT22;46196;52.970;6.954;2023-04-25T15:27:41;11.00;99.90
60353;DHT22;46196;52.970;6.954;2023-04-25T15:30:10;11.40;99.10
60353;DHT22;46196;52.970;6.954;2023-04-25T15:32:37;11.70;97.30
60353;DHT22;46196;52.970;6.954;2023-04-25T15:35:04;11.80;97.50
60353;DHT22;46196;52.970;6.954;2023-04-25T15:37:31;12.00;95.40
60353;DHT22;46196;52.970;6.954;2023-04-25T15:40:07;12.00;93.50
60353;DHT22;46196;52.970;6.954;2023-04-25T15:42:42;11.80;94.20
60353;DHT22;46196;52.970;6.954;2023-04-25T15:45:09;11.40;96.40
60353;DHT22;46196;52.970;6.954;2023-04-25T15:47:36;11.60;99.90
60353;DHT22;46196;52.970;6.954;2023-04-25T15:50:04;10.20;99.80
60353;DHT22;46196;52.970;6.954;2023-04-25T15:52:31;10.70;99.80
60353;DHT22;46196;52.970;6.954;2023-04-25T15:54:57;10.60;98.40
60353;DHT22;46196;52.970;6.954;2023-04-25T15:57:23;10.30;99.00
60353;DHT22;46196;52.970;6.954;2023-04-25T15:59:49;10.30;98.80
60353;DHT22;46196;52.970;6.954;2023-04-25T16:02:16;10.20;98.80
60353;DHT22;46196;52.970;6.954;2023-04-25T16:04:42;10.10;99.90
60353;DHT22;46196;52.970;6.954;2023-04-25T16:07:08;10.20;99.90
60353;DHT22;46196;52.970;6.954;2023-04-25T16:09:37;10.10;99.90
60353;DHT22;46196;52.970;6.954;2023-04-25T16:12:03;12.60;99.90